Latest Coastal Weather Observations for Larapuna (Eddystone Point)

IDT60701

Issued at 11:03 pm EDT Friday 24 March 2017 (issued every 10 minutes, with the page automatically refreshed every 10 minutes)

About coastal observations | Map of coastal stations | Coastal observations for TAS | Marine services | Other Formats
Station Details ID: 092045 Name: LARAPUNA (EDDYSTONE POINT) Lat: -40.99 Lon: 148.35 Height: 19.7 m
Data from the previous 72 hours. | See also: Recent months at Larapuna (Eddystone Point)
Date/Time
EDT
Temp
°C
Wind Pressure Rain since
9am
mm
Weather Cloud Vis
km
Sea
Height
m
Swell
Dir  Spd
kts
Gust
kts
hPa Trend Height
m
Period
s
Dir
24/11:00pm 16.7 NE 16 19 1020.1 - 0.0 - - - - - - -
24/10:30pm 16.4 E 8 10 1020.7 - 0.0 - - - - - - -
24/10:00pm 16.1 E 8 11 1021.0 - 0.0 - - - - - - -
24/09:30pm 16.2 E 10 13 1021.2 - 0.0 - - - - - - -
24/09:00pm 15.9 NE 10 12 1021.6 - 0.0 - - - - - - -
24/08:30pm 15.5 ENE 8 10 1021.2 - 0.0 - - - - - - -
24/08:00pm 15.2 ENE 7 9 1021.2 - 0.0 - - - - - - -
24/07:30pm 15.1 E 6 9 1021.8 - 0.0 - - - - - - -
24/07:00pm 15.4 E 8 10 1021.3 - 0.0 - - - - - - -
24/06:30pm 15.6 E 11 15 1021.1 - 0.0 - - - - - - -
24/06:00pm 16.1 ESE 11 14 1021.4 - 0.0 - - - - - - -
24/05:30pm 16.5 ESE 8 11 1021.6 - 0.0 - - - - - - -
24/05:00pm 16.2 ESE 10 14 1021.5 - 0.0 - - - - - - -
24/04:30pm 16.6 SE 9 13 1021.8 - 0.0 - - - - - - -
24/04:00pm 18.3 SE 9 13 1022.1 - 0.0 - - - - - - -
24/03:30pm 17.2 SE 11 13 1022.7 - 0.0 - - - - - - -
24/03:00pm 17.9 SE 11 15 1022.9 - 0.0 - - - - - - -
24/02:30pm 18.2 SE 12 15 1023.3 - 0.0 - - - - - - -
24/02:00pm 17.7 SSE 11 15 1023.5 - 0.0 - - - - - - -
24/01:30pm 18.6 SE 9 13 1023.5 - 0.0 - - - - - - -
24/01:00pm 19.1 SE 9 12 1023.8 - 0.0 - - - - - - -
24/12:30pm 18.0 SE 9 13 1024.0 - 0.0 - - - - - - -
24/12:00pm 19.9 SE 10 13 1024.5 - 0.0 - - - - - - -
24/11:30am 19.6 SE 10 13 1024.9 - 0.0 - - - - - - -
24/11:00am 18.1 SSE 12 16 1024.9 - 0.0 - - - - - - -
24/10:30am 18.0 SSE 13 17 1024.8 - 0.0 - - - - - - -
24/10:00am 17.9 SSE 15 17 1024.4 - 0.0 - - - - - - -
24/09:30am 17.1 SSE 14 17 1024.3 - 0.0 - - - - - - -
24/09:00am 16.0 SSE 14 17 1024.2 - 0.8 - - - - - - -
24/08:30am 15.9 SSE 15 19 1024.0 - 0.8 - - - - - - -
24/08:00am 15.6 SSE 14 16 1023.8 - 0.8 - - - - - - -
24/07:30am 15.3 S 14 16 1023.5 - 0.8 - - - - - - -
24/07:00am 14.9 S 13 16 1023.6 - 0.8 - - - - - - -
24/06:30am 14.7 SSW 9 13 1023.7 - 0.8 - - - - - - -
24/06:00am 15.2 S 15 18 1023.6 - 0.8 - - - - - - -
24/05:30am 15.0 S 15 18 1023.3 - 0.8 - - - - - - -
24/05:00am 14.8 SSW 11 14 1023.1 - 0.8 - - - - - - -
24/04:30am 14.8 SSW 15 17 1023.2 - 0.8 - - - - - - -
24/04:00am 15.1 S 14 17 1023.2 - 0.8 - - - - - - -
24/03:30am 15.6 SSE 10 13 1023.4 - 0.8 - - - - - - -
24/03:00am 15.3 ESE 7 12 1023.2 - 0.8 Rain - - - - - -
24/02:30am 16.0 ESE 9 13 1023.5 - 0.6 - - - - - - -
24/02:00am 16.1 ESE 11 15 1023.6 - 0.6 - - - - - - -
24/01:30am 15.4 SSE 9 13 1023.7 - 0.6 - - - - - - -
24/01:00am 15.4 S 12 14 1023.8 - 0.6 - - - - - - -
24/12:30am 15.0 SSE 9 11 1024.2 - 0.6 - - - - - - -
24/12:00am 14.8 SSE 8 10 1024.8 - 0.6 - - - - - - -
 
Date/Time
EDT
Temp
°C
Wind Pressure Rain since
9am
mm
Weather Cloud Vis
km
Sea
Height
m
Swell
Dir  Spd
kts
Gust
kts
hPa Trend Height
m
Period
s
Dir
23/11:30pm 14.7 S 12 15 1025.3 - 0.6 - - - - - - -
23/11:00pm 14.0 SE 9 11 1025.2 - 0.6 - - - - - - -
23/10:30pm 14.1 ESE 9 13 1025.8 - 0.6 - - - - - - -
23/10:00pm 14.3 SSE 15 18 1025.9 - 0.6 - - - - - - -
23/09:30pm 14.6 SSE 13 17 1025.9 - 0.4 - - - - - - -
23/09:00pm 14.3 SE 9 14 1025.5 - 0.4 - - - - - - -
23/08:30pm 14.9 SE 15 18 1024.9 - 0.4 - - - - - - -
23/08:00pm 15.4 SE 16 20 1024.4 - 0.4 - - - - - - -
23/07:30pm 15.7 SE 17 21 1023.9 - 0.4 - - - - - - -
23/07:00pm 15.9 SSE 19 22 1024.1 - 0.4 - - - - - - -
23/06:30pm 16.4 SE 16 21 1023.8 - 0.4 - - - - - - -
23/06:00pm 17.0 SSE 18 21 1023.7 - 0.4 - - - - - - -
23/05:30pm 16.6 SSE 17 21 1023.8 - 0.4 - - - - - - -
23/05:00pm 16.9 SSE 19 23 1023.6 - 0.4 - - - - - - -
23/04:30pm 17.4 SSE 19 22 1023.6 - 0.4 - - - - - - -
23/04:00pm 18.3 S 19 22 1023.8 - 0.4 - - - - - - -
23/03:30pm 18.8 S 19 22 1023.9 - 0.4 - - - - - - -
23/03:00pm 17.6 S 19 24 1024.1 - 0.4 Recent precip. - - - - - -
23/02:30pm 18.4 S 20 24 1024.2 - 0.2 - - - - - - -
23/02:00pm 17.7 S 21 24 1024.4 - 0.2 - - - - - - -
23/01:30pm 17.8 S 21 25 1024.7 - 0.2 - - - - - - -
23/01:00pm 17.1 S 21 24 1024.9 - 0.2 - - - - - - -
23/12:30pm 16.9 S 20 25 1025.0 - 0.2 - - - - - - -
23/12:00pm 15.9 S 23 28 1025.1 - 0.2 - - - - - - -
23/11:30am 15.6 S 22 26 1025.2 - 0.2 - - - - - - -
23/11:00am 15.4 S 23 28 1025.2 - 0.2 - - - - - - -
23/10:30am 15.2 SSW 22 25 1025.2 - 0.2 - - - - - - -
23/10:00am 14.5 S 21 23 1025.1 - 0.2 - - - - - - -
23/09:30am 14.4 SSW 21 23 1025.0 - 0.2 - - - - - - -
23/09:00am 14.6 S 20 23 1024.8 - 4.4 Rain - - - - - -
23/08:30am 15.0 S 19 23 1024.6 - 3.8 - - - - - - -
23/08:00am 15.3 SSE 18 24 1024.4 - 3.8 - - - - - - -
23/07:30am 14.8 SSE 18 21 1024.1 - 3.8 - - - - - - -
23/07:05am 14.8 SSE 19 25 1023.9 - 3.8 - - - - - - -
23/07:00am 15.3 SSE 20 25 1023.9 - 3.8 - - - - - - -
23/06:30am 15.1 S 19 23 1023.7 - 3.4 - - - - - - -
23/06:00am 15.1 SSE 21 25 1023.7 - 3.4 - - - - - - -
23/05:30am 15.4 SSE 20 23 1023.6 - 3.4 - - - - - - -
23/05:00am 15.7 SSE 20 25 1023.3 - 3.4 - - - - - - -
23/04:30am 15.9 SSE 19 23 1023.3 - 3.4 - - - - - - -
23/04:00am 15.7 SSE 20 26 1023.3 - 3.4 - - - - - - -
23/03:30am 15.8 SSE 19 22 1023.3 - 3.4 - - - - - - -
23/03:00am 15.7 SSE 21 25 1023.4 - 3.4 - - - - - - -
23/02:30am 16.0 SSE 19 24 1023.6 - 3.4 - - - - - - -
23/02:00am 16.0 SSE 19 25 1023.5 - 3.4 - - - - - - -
23/01:30am 15.7 SSE 21 25 1023.6 - 3.4 - - - - - - -
23/01:00am 15.8 SSE 21 26 1023.6 - 3.4 - - - - - - -
23/12:30am 15.7 SSE 21 26 1023.7 - 3.4 - - - - - - -
23/12:00am 15.4 SSE 21 26 1023.7 - 3.4 - - - - - - -
 
Date/Time
EDT
Temp
°C
Wind Pressure Rain since
9am
mm
Weather Cloud Vis
km
Sea
Height
m
Swell
Dir  Spd
kts
Gust
kts
hPa Trend Height
m
Period
s
Dir
22/11:30pm 15.2 S 20 26 1023.8 - 3.4 - - - - - - -
22/11:00pm 14.8 S 24 29 1023.3 - 3.4 - - - - - - -
22/10:30pm 14.8 S 24 29 1023.4 - 3.4 - - - - - - -
22/10:00pm 14.4 S 25 30 1023.2 - 3.4 - - - - - - -
22/09:30pm 14.9 S 27 32 1022.8 - 3.2 - - - - - - -
22/09:08pm 15.7 S 26 31 1022.5 - 3.2 - - - - - - -
22/09:00pm 16.4 SSE 25 29 1022.6 - 3.2 - - - - - - -
22/08:30pm 16.1 SSE 22 27 1022.4 - 3.2 - - - - - - -
22/08:00pm 16.1 SSE 25 31 1022.2 - 3.2 - - - - - - -
22/07:30pm 16.1 SSE 24 28 1021.8 - 3.2 - - - - - - -
22/07:00pm 16.1 SSE 25 29 1021.5 - 3.2 - - - - - - -
22/06:30pm 16.1 SSE 25 29 1021.1 - 3.2 - - - - - - -
22/06:00pm 16.3 S 26 31 1021.0 - 3.2 - - - - - - -
22/05:30pm 16.8 SSE 26 31 1020.6 - 3.2 - - - - - - -
22/05:00pm 16.7 SSE 27 32 1020.6 - 3.2 - - - - - - -
22/04:30pm 16.6 SSE 27 33 1020.3 - 3.2 - - - - - - -
22/04:00pm 17.1 SSE 28 33 1020.1 - 3.2 - - - - - - -
22/03:30pm 16.7 SSE 27 33 1020.1 - 3.2 - - - - - - -
22/03:00pm 16.8 SSE 27 32 1020.0 - 3.2 - - - - - - -
22/02:30pm 17.0 SSE 25 32 1019.8 - 3.2 - - - - - - -
22/02:00pm 17.5 SSE 28 33 1019.7 - 3.2 - - - - - - -
22/01:30pm 17.8 SSE 28 33 1019.6 - 3.2 - - - - - - -
22/01:00pm 18.1 SSE 27 32 1019.4 - 3.2 - - - - - - -
22/12:30pm 17.3 SSE 27 33 1019.4 - 3.2 - - - - - - -
22/12:00pm 16.6 SSE 28 32 1019.4 - 3.2 - - - - - - -
22/11:30am 16.4 SSE 29 34 1019.2 - 3.2 - - - - - - -
22/11:00am 16.1 SE 23 31 1019.1 - 3.2 - - - - - - -
22/10:30am 16.4 SE 26 32 1018.6 - 3.0 - - - - - - -
22/10:00am 16.1 SE 21 28 1018.4 - 2.0 - - - - - - -
22/09:48am 16.3 SE 17 27 1018.4 - 2.0 - - - - - - -
22/09:30am 16.3 SE 19 23 1018.5 - 1.8 - - - - - - -
22/09:00am 16.4 SE 18 23 1018.1 - 3.0 Rain - - - - - -
22/08:30am 16.2 SE 21 28 1017.8 - 2.8 - - - - - - -
22/08:00am 16.1 SE 21 29 1017.2 - 2.6 - - - - - - -
22/07:30am 16.1 SE 22 29 1016.6 - 2.2 - - - - - - -
22/07:00am 16.3 SE 23 30 1016.1 - 1.2 - - - - - - -
22/06:30am 16.6 SE 21 27 1016.0 - 0.6 - - - - - - -
22/06:00am 17.1 SE 25 30 1016.0 - 0.4 - - - - - - -
22/05:30am 17.1 SSE 24 30 1015.8 - 0.4 - - - - - - -
22/05:00am 16.9 SSE 25 30 1015.6 - 0.4 - - - - - - -
22/04:30am 16.8 SSE 25 30 1015.4 - 0.2 - - - - - - -
22/04:00am 16.8 SSE 24 28 1015.3 - 0.2 - - - - - - -
22/03:30am 16.5 SSE 24 29 1015.3 - 0.2 - - - - - - -
22/03:00am 17.3 SSE 24 29 1015.4 - 0.0 - - - - - - -
22/02:30am 17.7 SSE 22 27 1015.5 - 0.0 - - - - - - -
22/02:00am 17.5 SSE 22 27 1015.6 - 0.0 - - - - - - -
22/01:30am 17.4 SSE 22 26 1015.7 - 0.0 - - - - - - -
22/01:00am 17.7 SSE 22 25 1015.9 - 0.0 - - - - - - -
22/12:30am 17.6 SSE 21 25 1015.9 - 0.0 - - - - - - -
22/12:00am 17.5 SSE 22 25 1016.1 - 0.0 - - - - - - -
 
Date/Time
EDT
Temp
°C
Wind Pressure Rain since
9am
mm
Weather Cloud Vis
km
Sea
Height
m
Swell
Dir  Spd
kts
Gust
kts
hPa Trend Height
m
Period
s
Dir
21/11:30pm 17.5 SSE 20 25 1016.4 - 0.0 - - - - - - -

Other Formats:

Comma delimited format used in spreadsheet applications
http://www.bom.gov.au/fwo/IDT60701/IDT60701.94983.axf

JavaScript Object Notation format (JSON) in row-major order
http://www.bom.gov.au/fwo/IDT60701/IDT60701.94983.json